createdAt,value
2022-09-28T00:00:33.384Z,96452.00
2022-09-28T00:02:59.778Z,96448.53
2022-09-28T00:05:26.055Z,96448.34
2022-09-28T00:07:52.253Z,96445.28
2022-09-28T00:10:18.407Z,96451.59
2022-09-28T00:12:44.569Z,96448.16
2022-09-28T00:15:10.732Z,96445.09
2022-09-28T00:17:37.019Z,96442.22
2022-09-28T00:20:03.156Z,96436.34
2022-09-28T00:22:29.306Z,96438.78
2022-09-28T00:24:55.525Z,96435.34
2022-09-28T00:27:21.689Z,96444.06
2022-09-28T00:29:47.824Z,96439.81
2022-09-28T00:32:14.019Z,96430.69
2022-09-28T00:34:40.109Z,96426.38
2022-09-28T00:37:06.202Z,96424.34
2022-09-28T00:39:32.292Z,96424.41
2022-09-28T00:41:58.399Z,96418.50
2022-09-28T00:44:24.481Z,96427.66
2022-09-28T00:46:50.607Z,96418.88
2022-09-28T00:49:16.747Z,96422.75
2022-09-28T00:51:42.860Z,96416.66
2022-09-28T00:54:09.323Z,96420.34
2022-09-28T00:56:35.444Z,96411.22
2022-09-28T00:59:01.541Z,96420.34
2022-09-28T01:01:27.726Z,96414.66
2022-09-28T01:03:53.853Z,96415.69
2022-09-28T01:06:19.934Z,96419.50
2022-09-28T01:08:46.027Z,96417.50
2022-09-28T01:11:12.109Z,96410.97
2022-09-28T01:13:38.203Z,96419.13
2022-09-28T01:16:04.351Z,96409.78
2022-09-28T01:18:30.455Z,96423.59
2022-09-28T01:20:56.572Z,96418.53
2022-09-28T01:23:22.685Z,96415.47
2022-09-28T01:25:48.772Z,96414.44
2022-09-28T01:28:14.867Z,96418.75
2022-09-28T01:30:40.972Z,96410.19
2022-09-28T01:33:07.090Z,96412.19
2022-09-28T01:35:33.193Z,96422.75
2022-09-28T01:37:59.322Z,96416.84
2022-09-28T01:40:25.498Z,96414.63
2022-09-28T01:42:51.637Z,96407.72
2022-09-28T01:45:18.097Z,96406.31
2022-09-28T01:47:44.176Z,96404.09
2022-09-28T01:50:10.258Z,96409.78
2022-09-28T01:52:36.380Z,96412.41
2022-09-28T01:55:02.470Z,96412.84
2022-09-28T01:57:28.558Z,96407.97
2022-09-28T01:59:54.665Z,96402.06
2022-09-28T02:02:20.865Z,96415.88
2022-09-28T02:04:46.987Z,96410.22
2022-09-28T02:07:13.103Z,96402.25
2022-09-28T02:09:39.218Z,96403.47
2022-09-28T02:12:05.300Z,96400.22
2022-09-28T02:14:31.401Z,96409.75
2022-09-28T02:16:57.498Z,96413.84
2022-09-28T02:19:23.589Z,96410.97
2022-09-28T02:21:49.693Z,96411.38
2022-09-28T02:24:20.651Z,96410.22
2022-09-28T02:26:47.588Z,96407.75
2022-09-28T02:29:14.237Z,96402.28
2022-09-28T02:31:40.445Z,96401.09
2022-09-28T02:34:06.579Z,96412.03
2022-09-28T02:36:32.693Z,96403.31
2022-09-28T02:38:58.782Z,96404.09
2022-09-28T02:41:24.864Z,96406.13
2022-09-28T02:43:50.969Z,96404.13
2022-09-28T02:46:17.097Z,96411.84
2022-09-28T02:48:44.748Z,96408.97
2022-09-28T02:51:13.340Z,96410.63
2022-09-28T02:53:39.419Z,96410.00
2022-09-28T02:56:05.517Z,96407.38
2022-09-28T02:58:31.624Z,96403.69
2022-09-28T03:00:57.754Z,96411.84
2022-09-28T03:03:23.888Z,96406.56
2022-09-28T03:05:49.998Z,96407.34
2022-09-28T03:08:16.163Z,96413.88
2022-09-28T03:10:42.267Z,96411.84
2022-09-28T03:13:08.374Z,96413.03
2022-09-28T03:15:34.453Z,96415.88
2022-09-28T03:18:00.551Z,96418.72
2022-09-28T03:20:26.672Z,96415.47
2022-09-28T03:23:19.644Z,96412.22
2022-09-28T03:25:38.835Z,96411.00
2022-09-28T03:28:04.930Z,96421.34
2022-09-28T03:30:31.036Z,96421.56
2022-09-28T03:32:57.233Z,96418.13
2022-09-28T03:35:23.316Z,96423.59
2022-09-28T03:37:49.406Z,96418.34
2022-09-28T03:40:15.587Z,96412.84
2022-09-28T03:42:41.729Z,96425.63
2022-09-28T03:45:07.816Z,96422.34
2022-09-28T03:47:33.932Z,96413.44
2022-09-28T03:50:00.035Z,96411.84
2022-09-28T03:52:26.125Z,96412.22
2022-09-28T03:54:52.519Z,96412.03
2022-09-28T03:57:18.597Z,96411.03
2022-09-28T03:59:44.673Z,96413.06
2022-09-28T04:02:10.883Z,96409.00
2022-09-28T04:04:37.006Z,96413.47
2022-09-28T04:07:03.091Z,96407.78
2022-09-28T04:09:29.187Z,96412.03
2022-09-28T04:12:03.744Z,96407.56
2022-09-28T04:14:30.530Z,96411.44
2022-09-28T04:16:56.617Z,96408.19
2022-09-28T04:19:22.708Z,96404.53
2022-09-28T04:21:48.800Z,96408.59
2022-09-28T04:24:14.897Z,96400.47
2022-09-28T04:26:41.001Z,96414.88
2022-09-28T04:29:07.171Z,96416.28
2022-09-28T04:31:33.382Z,96425.22
2022-09-28T04:36:43.446Z,96418.72
2022-09-28T04:39:09.592Z,96426.03
2022-09-28T04:41:35.701Z,96420.97
2022-09-28T04:44:01.802Z,96424.81
2022-09-28T04:46:27.883Z,96419.13
2022-09-28T04:48:53.970Z,96417.50
2022-09-28T04:51:20.109Z,96418.94
2022-09-28T04:53:46.189Z,96429.66
2022-09-28T04:56:12.285Z,96424.38
2022-09-28T04:58:38.385Z,96421.34
2022-09-28T05:01:04.552Z,96426.22
2022-09-28T05:03:30.680Z,96418.72
2022-09-28T05:05:56.777Z,96425.44
2022-09-28T05:08:22.871Z,96421.19
2022-09-28T05:10:49.250Z,96426.44
2022-09-28T05:13:15.362Z,96426.66
2022-09-28T05:15:41.440Z,96425.41
2022-09-28T05:18:07.564Z,96421.56
2022-09-28T05:20:33.686Z,96426.44
2022-09-28T05:22:59.778Z,96423.00
2022-09-28T05:25:25.864Z,96426.66
2022-09-28T05:27:51.961Z,96434.56
2022-09-28T05:30:18.052Z,96427.88
2022-09-28T05:32:44.153Z,96426.44
2022-09-28T05:35:10.279Z,96428.06
2022-09-28T05:37:36.361Z,96431.53
2022-09-28T05:40:02.450Z,96432.94
2022-09-28T05:42:28.553Z,96420.78
2022-09-28T05:44:54.666Z,96419.56
2022-09-28T05:47:20.753Z,96428.66
2022-09-28T05:49:46.861Z,96427.03
2022-09-28T05:52:12.953Z,96430.06
2022-09-28T05:54:39.098Z,96429.66
2022-09-28T05:57:05.198Z,96426.66
2022-09-28T05:59:31.278Z,96429.50
2022-09-28T06:01:57.488Z,96429.69
2022-09-28T06:04:23.618Z,96431.94
2022-09-28T06:06:49.723Z,96425.63
2022-09-28T06:09:15.826Z,96434.75
2022-09-28T06:11:41.938Z,96435.38
2022-09-28T06:14:08.034Z,96435.16
2022-09-28T06:16:34.205Z,96430.28
2022-09-28T06:19:00.344Z,96435.38
2022-09-28T06:21:26.434Z,96438.63
2022-09-28T06:23:52.530Z,96433.16
2022-09-28T06:26:18.628Z,96438.00
2022-09-28T06:28:44.726Z,96437.63
2022-09-28T06:31:10.970Z,96442.88
2022-09-28T06:33:37.214Z,96454.84
2022-09-28T06:36:03.305Z,96455.28
2022-09-28T06:38:29.398Z,96460.53
2022-09-28T06:40:55.553Z,96467.63
2022-09-28T06:43:21.652Z,96469.66
2022-09-28T06:45:47.771Z,96470.28
2022-09-28T06:48:13.943Z,96469.47
2022-09-28T06:50:40.037Z,96476.38
2022-09-28T06:53:06.149Z,96479.03
2022-09-28T06:55:32.257Z,96467.03
2022-09-28T06:57:58.334Z,96471.91
2022-09-28T07:00:24.408Z,96478.00
2022-09-28T07:02:50.512Z,96470.69
2022-09-28T07:05:16.593Z,96479.19
2022-09-28T07:07:42.726Z,96482.47
2022-09-28T07:10:08.829Z,96487.75
2022-09-28T07:12:34.926Z,96485.09
2022-09-28T07:15:01.039Z,96492.63
2022-09-28T07:17:27.174Z,96490.78
2022-09-28T07:19:53.326Z,96496.47
2022-09-28T07:22:22.144Z,96501.94
2022-09-28T07:24:52.873Z,96498.28
2022-09-28T07:27:18.968Z,96507.66
2022-09-28T07:29:45.056Z,96501.34
2022-09-28T07:32:11.168Z,96508.50
2022-09-28T07:34:37.254Z,96505.81
2022-09-28T07:37:03.387Z,96512.13
2022-09-28T07:39:30.225Z,96512.53
2022-09-28T07:41:59.671Z,96513.16
2022-09-28T07:44:28.550Z,96507.28
2022-09-28T07:46:55.537Z,96514.34
2022-09-28T07:49:21.640Z,96510.91
2022-09-28T07:51:47.737Z,96512.50
2022-09-28T07:54:13.828Z,96524.91
2022-09-28T07:56:39.904Z,96526.16
2022-09-28T07:59:06.011Z,96538.31
2022-09-28T08:01:32.158Z,96524.72
2022-09-28T08:03:58.325Z,96532.03
2022-09-28T08:06:24.432Z,96531.63
2022-09-28T08:08:50.550Z,96536.09
2022-09-28T08:11:16.659Z,96531.59
2022-09-28T08:13:42.745Z,96535.09
2022-09-28T08:16:08.836Z,96536.50
2022-09-28T08:18:34.917Z,96542.59
2022-09-28T08:21:01.007Z,96543.00
2022-09-28T08:23:27.108Z,96542.56
2022-09-28T08:25:53.198Z,96546.84
2022-09-28T08:28:19.296Z,96543.19
2022-09-28T08:30:45.446Z,96545.00
2022-09-28T08:33:11.589Z,96548.28
2022-09-28T08:35:37.693Z,96553.13
2022-09-28T08:38:03.802Z,96561.91
2022-09-28T08:40:29.933Z,96561.91
2022-09-28T08:42:56.038Z,96567.56
2022-09-28T08:45:23.202Z,96559.66
2022-09-28T08:47:49.485Z,96575.09
2022-09-28T08:50:15.564Z,96572.25
2022-09-28T08:52:42.048Z,96575.50
2022-09-28T08:55:08.132Z,96571.25
2022-09-28T08:57:34.213Z,96580.78
2022-09-28T09:00:00.313Z,96580.56
2022-09-28T09:02:26.461Z,96581.81
2022-09-28T09:04:52.569Z,96576.91
2022-09-28T09:07:18.677Z,96575.88
2022-09-28T09:09:44.759Z,96591.75
2022-09-28T09:12:10.851Z,96582.41
2022-09-28T09:14:36.949Z,96592.97
2022-09-28T09:17:03.089Z,96597.03
2022-09-28T09:19:29.210Z,96594.19
2022-09-28T09:21:55.314Z,96613.69
2022-09-28T09:24:21.399Z,96615.53
2022-09-28T09:26:47.480Z,96607.78
2022-09-28T09:29:13.589Z,96605.94
2022-09-28T09:31:39.667Z,96611.84
2022-09-28T09:34:05.761Z,96617.75
2022-09-28T09:36:31.877Z,96620.38
2022-09-28T09:38:57.970Z,96614.28
2022-09-28T09:41:24.050Z,96623.63
2022-09-28T09:43:50.156Z,96628.31
2022-09-28T09:46:16.350Z,96631.38
2022-09-28T09:48:42.585Z,96630.34
2022-09-28T09:51:08.720Z,96632.34
2022-09-28T09:53:37.687Z,96631.72
2022-09-28T09:56:04.744Z,96633.78
2022-09-28T09:58:30.899Z,96641.91
2022-09-28T10:00:57.022Z,96640.09
2022-09-28T10:03:23.267Z,96646.41
2022-09-28T10:05:49.400Z,96649.00
2022-09-28T10:08:15.484Z,96645.38
2022-09-28T10:10:41.567Z,96648.81
2022-09-28T10:13:07.677Z,96648.22
2022-09-28T10:15:33.770Z,96655.13
2022-09-28T10:17:59.851Z,96644.94
2022-09-28T10:20:26.006Z,96649.81
2022-09-28T10:22:52.099Z,96651.47
2022-09-28T10:25:18.186Z,96648.22
2022-09-28T10:27:44.288Z,96644.50
2022-09-28T10:30:10.367Z,96648.94
2022-09-28T10:32:36.453Z,96644.00
2022-09-28T10:35:02.558Z,96653.78
2022-09-28T10:37:28.640Z,96647.94
2022-09-28T10:39:54.733Z,96650.97
2022-09-28T10:42:20.869Z,96664.06
2022-09-28T10:44:46.949Z,96656.56
2022-09-28T10:47:13.045Z,96663.28
2022-09-28T10:49:43.101Z,96666.28
2022-09-28T10:52:12.086Z,96665.06
2022-09-28T10:54:38.174Z,96667.28
2022-09-28T10:57:04.298Z,96679.69
2022-09-28T10:59:30.379Z,96675.38
2022-09-28T11:01:56.468Z,96675.88
2022-09-28T11:04:22.579Z,96674.81
2022-09-28T11:06:48.700Z,96678.38
2022-09-28T11:09:14.888Z,96682.19
2022-09-28T11:11:41.056Z,96673.63
2022-09-28T11:14:07.150Z,96670.63
2022-09-28T11:16:33.284Z,96681.75
2022-09-28T11:18:59.419Z,96677.69
2022-09-28T11:21:25.524Z,96673.34
2022-09-28T11:23:51.622Z,96682.09
2022-09-28T11:26:18.914Z,96677.19
2022-09-28T11:28:45.202Z,96674.94
2022-09-28T11:31:11.389Z,96683.88
2022-09-28T11:33:37.540Z,96684.75
2022-09-28T11:36:03.628Z,96674.31
2022-09-28T11:38:29.708Z,96678.63
2022-09-28T11:40:55.889Z,96680.03
2022-09-28T11:43:22.011Z,96685.66
2022-09-28T11:45:48.154Z,96686.88
2022-09-28T11:48:14.294Z,96682.09
2022-09-28T11:50:40.386Z,96686.84
2022-09-28T11:53:06.465Z,96688.69
2022-09-28T11:55:32.595Z,96691.41
2022-09-28T11:57:58.676Z,96683.72
2022-09-28T12:00:24.765Z,96692.00
2022-09-28T12:02:51.648Z,96697.84
2022-09-28T12:05:20.892Z,96689.50
2022-09-28T12:07:47.316Z,96697.56
2022-09-28T12:10:13.434Z,96692.28
2022-09-28T12:12:39.526Z,96695.91
2022-09-28T12:15:05.616Z,96692.13
2022-09-28T12:17:31.785Z,96690.44
2022-09-28T12:19:57.903Z,96678.91
2022-09-28T12:22:23.999Z,96686.31
2022-09-28T12:24:50.105Z,96686.81
2022-09-28T12:27:16.206Z,96684.94
2022-09-28T12:29:42.289Z,96676.91
2022-09-28T12:32:08.393Z,96675.13
2022-09-28T12:34:34.483Z,96684.19
2022-09-28T12:37:00.567Z,96673.78
2022-09-28T12:39:40.781Z,96676.69
2022-09-28T12:42:12.759Z,96683.66
2022-09-28T12:44:38.880Z,96680.22
2022-09-28T12:47:05.008Z,96679.63
2022-09-28T12:52:17.312Z,96677.84
2022-09-28T12:54:43.421Z,96679.69
2022-09-28T12:57:09.505Z,96684.03
2022-09-28T12:59:35.601Z,96678.47
2022-09-28T13:02:01.690Z,96683.72
2022-09-28T13:04:27.790Z,96679.44
2022-09-28T13:06:54.393Z,96669.28
2022-09-28T13:09:20.481Z,96685.47
2022-09-28T13:11:46.574Z,96683.41
2022-09-28T13:14:12.689Z,96674.31
2022-09-28T13:16:38.771Z,96664.41
2022-09-28T13:19:04.858Z,96678.50
2022-09-28T13:21:30.968Z,96685.13
2022-09-28T13:24:08.731Z,96677.50
2022-09-28T13:26:43.128Z,96689.03
2022-09-28T13:29:09.213Z,96688.66
2022-09-28T13:31:37.147Z,96687.50
2022-09-28T13:34:05.719Z,96695.03
2022-09-28T13:36:31.822Z,96684.19
2022-09-28T13:38:57.909Z,96685.75
2022-09-28T13:41:24.032Z,96683.38
2022-09-28T13:43:50.131Z,96685.78
2022-09-28T13:46:16.315Z,96685.34
2022-09-28T13:48:42.535Z,96689.59
2022-09-28T13:51:08.618Z,96692.66
2022-09-28T13:53:34.701Z,96676.53
2022-09-28T13:56:01.655Z,96675.56
2022-09-28T13:58:27.748Z,96675.22
2022-09-28T14:00:53.854Z,96679.66
2022-09-28T14:03:19.977Z,96687.78
2022-09-28T14:05:46.086Z,96694.09
2022-09-28T14:08:12.182Z,96686.88
2022-09-28T14:10:38.334Z,96686.56
2022-09-28T14:13:06.613Z,96683.78
2022-09-28T14:15:34.748Z,96683.19
2022-09-28T14:18:00.884Z,96682.00
2022-09-28T14:20:26.963Z,96687.50
2022-09-28T14:22:53.044Z,96687.28
2022-09-28T14:25:19.159Z,96691.75
2022-09-28T14:27:45.270Z,96686.06
2022-09-28T14:30:11.368Z,96692.09
2022-09-28T14:32:37.487Z,96689.84
2022-09-28T14:35:03.593Z,96694.03
2022-09-28T14:37:29.677Z,96698.00
2022-09-28T14:39:55.781Z,96689.44
2022-09-28T14:42:21.870Z,96693.16
2022-09-28T14:44:47.953Z,96694.50
2022-09-28T14:47:14.057Z,96696.63
2022-09-28T14:49:40.160Z,96703.81
2022-09-28T14:52:06.240Z,96703.19
2022-09-28T14:54:32.349Z,96703.59
2022-09-28T14:56:58.443Z,96704.56
2022-09-28T14:59:24.542Z,96699.34
2022-09-28T15:01:50.656Z,96706.72
2022-09-28T15:04:16.975Z,96706.44
2022-09-28T15:06:43.237Z,96705.91
2022-09-28T15:09:09.359Z,96709.81
2022-09-28T15:11:35.462Z,96708.66
2022-09-28T15:14:01.612Z,96705.47
2022-09-28T15:16:27.722Z,96703.84
2022-09-28T15:18:53.805Z,96706.34
2022-09-28T15:21:19.898Z,96713.72
2022-09-28T15:23:46.019Z,96714.63
2022-09-28T15:26:12.142Z,96709.31
2022-09-28T15:28:38.224Z,96700.91
2022-09-28T15:31:04.376Z,96694.44
2022-09-28T15:33:30.505Z,96702.03
2022-09-28T15:35:56.617Z,96710.28
2022-09-28T15:38:22.704Z,96703.13
2022-09-28T15:40:48.832Z,96710.22
2022-09-28T15:43:14.979Z,96710.66
2022-09-28T15:45:41.104Z,96708.38
2022-09-28T15:48:07.201Z,96713.75
2022-09-28T15:50:34.024Z,96712.94
2022-09-28T15:53:00.137Z,96718.03
2022-09-28T15:55:26.220Z,96715.59
2022-09-28T15:57:52.304Z,96718.91
2022-09-28T16:00:18.412Z,96722.88
2022-09-28T16:02:44.557Z,96722.56
2022-09-28T16:05:10.675Z,96723.34
2022-09-28T16:07:36.772Z,96732.94
2022-09-28T16:10:03.016Z,96730.50
2022-09-28T16:12:30.275Z,96734.47
2022-09-28T16:14:56.846Z,96736.06
2022-09-28T16:17:22.935Z,96740.78
2022-09-28T16:19:49.025Z,96733.06
2022-09-28T16:22:15.117Z,96738.16
2022-09-28T16:24:41.211Z,96737.00
2022-09-28T16:27:08.341Z,96741.50
2022-09-28T16:29:34.458Z,96747.56
2022-09-28T16:32:00.560Z,96738.00
2022-09-28T16:34:26.633Z,96743.94
2022-09-28T16:36:53.916Z,96744.03
2022-09-28T16:39:22.324Z,96750.56
2022-09-28T16:41:48.420Z,96757.50
2022-09-28T16:44:14.534Z,96758.72
2022-09-28T16:46:40.705Z,96764.66
2022-09-28T16:49:06.848Z,96766.72
2022-09-28T16:51:32.953Z,96772.81
2022-09-28T16:53:59.032Z,96767.31
2022-09-28T16:56:25.114Z,96769.59
2022-09-28T16:58:51.212Z,96774.66
2022-09-28T17:01:17.334Z,96774.69
2022-09-28T17:03:43.487Z,96780.84
2022-09-28T17:06:09.991Z,96779.31
2022-09-28T17:08:36.102Z,96769.31
2022-09-28T17:11:22.836Z,96784.97
2022-09-28T17:13:48.282Z,96787.84
2022-09-28T17:16:14.459Z,96785.03
2022-09-28T17:18:40.634Z,96794.41
2022-09-28T17:21:06.842Z,96787.09
2022-09-28T17:23:32.914Z,96788.75
2022-09-28T17:25:59.005Z,96788.34
2022-09-28T17:28:26.869Z,96793.09
2022-09-28T17:30:53.025Z,96801.59
2022-09-28T17:33:19.168Z,96802.22
2022-09-28T17:35:45.299Z,96804.31
2022-09-28T17:38:11.450Z,96803.09
2022-09-28T17:40:37.599Z,96803.91
2022-09-28T17:43:03.762Z,96808.38
2022-09-28T17:45:29.923Z,96803.91
2022-09-28T17:47:56.036Z,96803.91
2022-09-28T17:50:22.141Z,96808.00
2022-09-28T17:52:48.228Z,96813.28
2022-09-28T17:55:14.317Z,96809.22
2022-09-28T17:57:40.430Z,96816.56
2022-09-28T18:00:06.527Z,96822.88
2022-09-28T18:02:32.652Z,96817.78
2022-09-28T18:04:59.192Z,96821.03
2022-09-28T18:07:25.472Z,96824.50
2022-09-28T18:09:51.552Z,96828.59
2022-09-28T18:12:17.671Z,96826.94
2022-09-28T18:14:43.774Z,96821.47
2022-09-28T18:17:09.870Z,96824.91
2022-09-28T18:19:35.982Z,96831.63
2022-09-28T18:22:02.085Z,96832.03
2022-09-28T18:24:28.174Z,96830.81
2022-09-28T18:26:54.276Z,96834.28
2022-09-28T18:29:20.366Z,96835.91
2022-09-28T18:31:46.460Z,96841.41
2022-09-28T18:34:12.569Z,96834.69
2022-09-28T18:36:38.730Z,96837.53
2022-09-28T18:39:04.829Z,96834.88
2022-09-28T18:41:30.932Z,96836.31
2022-09-28T18:43:57.022Z,96835.91
2022-09-28T18:46:23.217Z,96837.75
2022-09-28T18:48:49.391Z,96838.97
2022-09-28T18:51:15.485Z,96836.53
2022-09-28T18:53:41.584Z,96830.84
2022-09-28T18:56:07.697Z,96839.38
2022-09-28T18:58:33.778Z,96843.44
2022-09-28T19:01:18.716Z,96849.97
2022-09-28T19:03:45.970Z,96841.41
2022-09-28T19:06:12.079Z,96848.13
2022-09-28T19:08:38.373Z,96838.38
2022-09-28T19:11:04.547Z,96842.63
2022-09-28T19:13:30.654Z,96848.13
2022-09-28T19:15:56.801Z,96843.66
2022-09-28T19:18:22.934Z,96841.41
2022-09-28T19:20:49.023Z,96850.78
2022-09-28T19:23:15.110Z,96853.63
2022-09-28T19:25:41.484Z,96855.84
2022-09-28T19:28:07.603Z,96845.91
2022-09-28T19:30:33.720Z,96846.69
2022-09-28T19:32:59.834Z,96846.72
2022-09-28T19:35:25.920Z,96843.44
2022-09-28T19:37:52.009Z,96844.06
2022-09-28T19:40:18.178Z,96847.13
2022-09-28T19:42:44.327Z,96856.47
2022-09-28T19:45:10.421Z,96854.84
2022-09-28T19:47:36.532Z,96855.25
2022-09-28T19:50:02.623Z,96863.19
2022-09-28T19:52:28.718Z,96858.09
2022-09-28T19:54:54.832Z,96863.78
2022-09-28T19:57:20.926Z,96864.00
2022-09-28T19:59:52.034Z,96861.75
2022-09-28T20:02:18.785Z,96869.28
2022-09-28T20:04:44.957Z,96865.63
2022-09-28T20:07:11.054Z,96869.28
2022-09-28T20:09:37.688Z,96874.97
2022-09-28T20:12:03.795Z,96880.88
2022-09-28T20:14:33.134Z,96874.34
2022-09-28T20:17:03.982Z,96875.59
2022-09-28T20:19:30.071Z,96875.56
2022-09-28T20:21:56.158Z,96874.94
2022-09-28T20:24:22.271Z,96879.19
2022-09-28T20:26:48.393Z,96874.75
2022-09-28T20:29:14.531Z,96880.44
2022-09-28T20:31:40.694Z,96875.97
2022-09-28T20:34:06.814Z,96872.72
2022-09-28T20:36:32.899Z,96875.16
2022-09-28T20:38:59.063Z,96870.06
2022-09-28T20:41:25.205Z,96871.66
2022-09-28T20:43:51.295Z,96886.91
2022-09-28T20:46:17.644Z,96886.09
2022-09-28T20:48:43.772Z,96886.72
2022-09-28T20:51:09.868Z,96889.56
2022-09-28T20:53:36.020Z,96888.94
2022-09-28T20:56:02.156Z,96887.69
2022-09-28T20:58:28.245Z,96887.28
2022-09-28T21:00:54.372Z,96895.03
2022-09-28T21:03:20.459Z,96890.53
2022-09-28T21:05:46.545Z,96897.63
2022-09-28T21:08:12.666Z,96903.25
2022-09-28T21:10:38.784Z,96903.00
2022-09-28T21:13:04.884Z,96897.50
2022-09-28T21:15:31.606Z,96902.22
2022-09-28T21:17:57.755Z,96903.06
2022-09-28T21:20:23.841Z,96904.84
2022-09-28T21:22:49.957Z,96904.06
2022-09-28T21:25:16.035Z,96903.28
2022-09-28T21:27:42.174Z,96905.91
2022-09-28T21:30:08.326Z,96910.00
2022-09-28T21:32:34.576Z,96911.97
2022-09-28T21:35:00.860Z,96912.03
2022-09-28T21:37:27.140Z,96905.09
2022-09-28T21:39:53.277Z,96899.56
2022-09-28T21:42:19.510Z,96915.84
2022-09-28T21:44:45.695Z,96909.72
2022-09-28T21:47:11.906Z,96910.09
2022-09-28T21:49:37.995Z,96920.22
2022-09-28T21:52:04.110Z,96917.13
2022-09-28T21:54:30.198Z,96915.28
2022-09-28T21:56:56.273Z,96918.50
2022-09-28T21:59:22.389Z,96916.03
2022-09-28T22:01:48.542Z,96922.69
2022-09-28T22:04:14.754Z,96916.25
2022-09-28T22:06:40.974Z,96917.50
2022-09-28T22:09:07.072Z,96908.72
2022-09-28T22:11:33.160Z,96916.03
2022-09-28T22:13:59.454Z,96910.53
2022-09-28T22:16:25.655Z,96909.72
2022-09-28T22:18:51.919Z,96907.72
2022-09-28T22:21:18.047Z,96917.66
2022-09-28T22:23:44.226Z,96913.56
2022-09-28T22:26:10.363Z,96912.38
2022-09-28T22:28:36.459Z,96918.19
2022-09-28T22:31:02.658Z,96912.69
2022-09-28T22:33:28.791Z,96910.63
2022-09-28T22:35:54.964Z,96916.09
2022-09-28T22:38:21.101Z,96927.91
2022-09-28T22:40:47.437Z,96920.94
2022-09-28T22:43:13.678Z,96927.75
2022-09-28T22:45:39.844Z,96931.09
2022-09-28T22:48:06.082Z,96930.72
2022-09-28T22:50:32.237Z,96932.63
2022-09-28T22:52:58.375Z,96923.91
2022-09-28T22:55:24.465Z,96924.59
2022-09-28T22:57:50.613Z,96932.13
2022-09-28T23:00:16.761Z,96929.69
2022-09-28T23:02:42.894Z,96935.34
2022-09-28T23:05:09.100Z,96926.13
2022-09-28T23:07:35.236Z,96933.84
2022-09-28T23:10:01.312Z,96930.72
2022-09-28T23:12:27.964Z,96930.53
2022-09-28T23:14:54.102Z,96934.88
2022-09-28T23:17:20.298Z,96925.50
2022-09-28T23:19:46.570Z,96922.09
2022-09-28T23:22:12.847Z,96929.44
2022-09-28T23:24:38.936Z,96928.22
2022-09-28T23:27:05.173Z,96917.66
2022-09-28T23:29:31.267Z,96922.72
2022-09-28T23:32:00.486Z,96928.22
2022-09-28T23:34:26.635Z,96929.69
2022-09-28T23:36:52.721Z,96931.16
2022-09-28T23:39:19.065Z,96933.56
2022-09-28T23:41:46.258Z,96926.09
2022-09-28T23:44:12.459Z,96928.06
2022-09-28T23:46:38.609Z,96924.22
2022-09-28T23:49:04.724Z,96922.59
2022-09-28T23:51:30.813Z,96925.47
2022-09-28T23:53:56.946Z,96925.88
2022-09-28T23:56:23.084Z,96927.09
2022-09-28T23:58:49.180Z,96925.06
